createdAt,value
2022-08-18T00:01:14.547Z,63.05
2022-08-18T00:03:56.765Z,63.23
2022-08-18T00:06:29.560Z,63.51
2022-08-18T00:09:00.468Z,63.58
2022-08-18T00:11:40.922Z,63.46
2022-08-18T00:14:21.425Z,63.78
2022-08-18T00:16:53.177Z,63.75
2022-08-18T00:19:45.712Z,63.75
2022-08-18T00:22:15.251Z,64.10
2022-08-18T00:24:48.086Z,64.05
2022-08-18T00:27:28.507Z,64.08
2022-08-18T00:30:00.397Z,64.33
2022-08-18T00:32:34.083Z,64.34
2022-08-18T00:35:13.916Z,64.48
2022-08-18T00:37:43.446Z,64.65
2022-08-18T00:40:17.998Z,64.66
2022-08-18T00:42:49.831Z,64.93
2022-08-18T00:45:23.267Z,64.88
2022-08-18T00:47:52.042Z,65.06
2022-08-18T00:50:31.554Z,65.10
2022-08-18T00:53:36.101Z,65.34
2022-08-18T00:56:11.490Z,65.35
2022-08-18T00:58:51.819Z,65.49
2022-08-18T01:01:24.905Z,65.43
2022-08-18T01:04:00.652Z,65.39
2022-08-18T01:06:41.476Z,65.48
2022-08-18T01:09:09.952Z,65.64
2022-08-18T01:11:39.812Z,65.56
2022-08-18T01:14:09.828Z,65.65
2022-08-18T01:16:57.321Z,65.59
2022-08-18T01:19:47.709Z,65.59
2022-08-18T01:22:43.019Z,65.66
2022-08-18T01:25:29.683Z,65.77
2022-08-18T01:28:00.728Z,65.81
2022-08-18T01:30:32.431Z,65.94
2022-08-18T01:33:00.331Z,66.02
2022-08-18T01:35:28.468Z,66.10
2022-08-18T01:38:06.055Z,66.28
2022-08-18T01:41:23.890Z,66.29
2022-08-18T01:43:21.818Z,66.35
2022-08-18T01:45:49.647Z,66.36
2022-08-18T01:48:17.832Z,66.49
2022-08-18T01:50:48.363Z,66.68
2022-08-18T01:53:17.361Z,66.78
2022-08-18T01:55:46.585Z,66.78
2022-08-18T01:58:14.696Z,66.86
2022-08-18T02:00:42.730Z,66.72
2022-08-18T02:03:14.744Z,66.92
2022-08-18T02:05:48.611Z,66.94
2022-08-18T02:08:16.653Z,67.02
2022-08-18T02:10:44.479Z,66.99
2022-08-18T02:13:13.143Z,67.13
2022-08-18T02:15:42.918Z,67.14
2022-08-18T02:18:25.954Z,67.26
2022-08-18T02:21:19.053Z,67.51
2022-08-18T02:23:53.976Z,67.52
2022-08-18T02:26:23.603Z,67.46
2022-08-18T02:28:52.605Z,67.73
2022-08-18T02:31:23.235Z,67.71
2022-08-18T02:33:52.291Z,67.69
2022-08-18T02:36:25.253Z,67.83
2022-08-18T02:38:58.913Z,67.97
2022-08-18T02:41:29.637Z,68.14
2022-08-18T02:43:59.529Z,68.28
2022-08-18T02:46:31.129Z,68.21
2022-08-18T02:49:00.783Z,68.39
2022-08-18T02:51:29.395Z,68.42
2022-08-18T02:54:01.187Z,68.42
2022-08-18T02:56:40.303Z,68.60
2022-08-18T02:59:14.466Z,68.62
2022-08-18T03:01:46.315Z,68.65
2022-08-18T03:04:17.746Z,68.76
2022-08-18T03:06:46.911Z,68.87
2022-08-18T03:09:18.768Z,68.81
2022-08-18T03:11:47.055Z,68.86
2022-08-18T03:14:15.455Z,68.94
2022-08-18T03:16:53.567Z,69.03
2022-08-18T03:19:25.404Z,69.10
2022-08-18T03:21:53.367Z,69.07
2022-08-18T03:24:23.724Z,69.23
2022-08-18T03:26:53.592Z,69.20
2022-08-18T03:29:21.638Z,69.21
2022-08-18T03:31:50.762Z,69.25
2022-08-18T03:34:20.207Z,69.12
2022-08-18T03:36:50.367Z,69.36
2022-08-18T03:39:20.068Z,69.32
2022-08-18T03:41:58.480Z,69.20
2022-08-18T03:44:33.810Z,69.54
2022-08-18T03:47:03.978Z,69.45
2022-08-18T03:49:34.008Z,69.39
2022-08-18T03:52:02.487Z,69.44
2022-08-18T03:54:32.517Z,69.60
2022-08-18T03:57:00.689Z,69.54
2022-08-18T03:59:32.003Z,69.69
2022-08-18T04:02:03.763Z,69.70
2022-08-18T04:04:31.691Z,69.86
2022-08-18T04:07:05.712Z,70.02
2022-08-18T04:09:36.358Z,69.85
2022-08-18T04:12:15.367Z,70.00
2022-08-18T04:14:49.055Z,69.98
2022-08-18T04:17:24.609Z,69.97
2022-08-18T04:19:55.584Z,70.05
2022-08-18T04:22:25.170Z,70.11
2022-08-18T04:24:53.956Z,70.00
2022-08-18T04:27:23.399Z,70.07
2022-08-18T04:29:51.295Z,69.97
2022-08-18T04:32:19.697Z,70.22
2022-08-18T04:34:47.597Z,70.20
2022-08-18T04:37:16.931Z,70.01
2022-08-18T04:39:46.120Z,69.99
2022-08-18T04:42:15.391Z,70.16
2022-08-18T04:44:43.534Z,70.15
2022-08-18T04:47:13.459Z,70.09
2022-08-18T04:49:41.479Z,70.12
2022-08-18T04:52:40.141Z,69.94
2022-08-18T04:55:11.150Z,69.91
2022-08-18T04:57:39.731Z,69.79
2022-08-18T05:00:13.013Z,69.67
2022-08-18T05:02:41.279Z,69.52
2022-08-18T05:05:09.243Z,69.51
2022-08-18T05:07:44.287Z,69.20
2022-08-18T05:10:13.058Z,68.84
2022-08-18T05:12:42.593Z,68.53
2022-08-18T05:15:10.731Z,68.10
2022-08-18T05:17:39.861Z,67.78
2022-08-18T05:20:12.271Z,67.49
2022-08-18T05:22:42.224Z,67.29
2022-08-18T05:25:12.484Z,66.73
2022-08-18T05:27:44.050Z,66.49
2022-08-18T05:30:14.590Z,66.41
2022-08-18T05:32:49.928Z,66.10
2022-08-18T05:35:26.431Z,65.80
2022-08-18T05:38:26.555Z,65.57
2022-08-18T05:41:13.929Z,65.35
2022-08-18T05:43:51.440Z,65.25
2022-08-18T05:46:32.629Z,64.86
2022-08-18T05:49:00.474Z,64.72
2022-08-18T05:51:38.554Z,64.67
2022-08-18T05:54:25.771Z,64.35
2022-08-18T05:57:03.673Z,63.83
2022-08-18T05:59:39.891Z,63.57
2022-08-18T06:02:31.658Z,63.06
2022-08-18T06:05:35.208Z,62.66
2022-08-18T06:08:10.527Z,62.31
2022-08-18T06:10:43.614Z,61.97
2022-08-18T06:13:11.971Z,61.71
2022-08-18T06:15:57.206Z,61.71
2022-08-18T06:18:43.262Z,61.14
2022-08-18T06:21:25.640Z,60.70
2022-08-18T06:24:07.179Z,60.53
2022-08-18T06:26:41.443Z,60.31
2022-08-18T06:29:48.171Z,60.24
2022-08-18T06:32:53.144Z,60.05
2022-08-18T06:35:36.112Z,59.78
2022-08-18T06:38:34.025Z,59.56
2022-08-18T06:41:42.353Z,59.31
2022-08-18T06:44:27.091Z,58.53
2022-08-18T06:47:10.363Z,58.29
2022-08-18T06:49:46.809Z,57.90
2022-08-18T06:52:23.754Z,57.55
2022-08-18T06:54:54.990Z,57.37
2022-08-18T06:57:36.559Z,56.90
2022-08-18T07:00:20.364Z,56.52
2022-08-18T07:03:01.293Z,56.30
2022-08-18T07:05:32.448Z,56.04
2022-08-18T07:08:11.808Z,55.84
2022-08-18T07:10:45.771Z,55.49
2022-08-18T07:13:13.552Z,55.33
2022-08-18T07:15:44.266Z,55.11
2022-08-18T07:18:14.013Z,54.93
2022-08-18T07:21:00.667Z,54.91
2022-08-18T07:23:32.631Z,54.78
2022-08-18T07:26:17.757Z,54.65
2022-08-18T07:28:52.865Z,54.52
2022-08-18T07:31:31.723Z,54.24
2022-08-18T07:34:10.734Z,54.04
2022-08-18T07:36:51.192Z,53.86
2022-08-18T07:39:26.773Z,53.92
2022-08-18T07:42:44.701Z,53.74
2022-08-18T07:45:42.471Z,53.31
2022-08-18T07:48:38.464Z,52.91
2022-08-18T07:51:37.622Z,52.75
2022-08-18T07:54:49.072Z,52.46
2022-08-18T07:57:42.217Z,52.38
2022-08-18T08:00:35.072Z,52.38
2022-08-18T08:03:47.147Z,52.04
2022-08-18T08:06:30.814Z,52.07
2022-08-18T08:08:59.211Z,51.91
2022-08-18T08:11:37.629Z,51.73
2022-08-18T08:14:11.184Z,51.25
2022-08-18T08:16:58.219Z,51.41
2022-08-18T08:20:00.116Z,51.30
2022-08-18T08:22:51.011Z,51.22
2022-08-18T08:25:45.793Z,51.20
2022-08-18T08:28:44.520Z,50.90
2022-08-18T08:31:36.855Z,50.74
2022-08-18T08:34:27.393Z,50.71
2022-08-18T08:37:05.162Z,50.49
2022-08-18T08:40:02.873Z,50.37
2022-08-18T08:42:42.981Z,50.12
2022-08-18T08:45:21.661Z,50.06
2022-08-18T08:48:09.254Z,49.98
2022-08-18T08:51:01.508Z,49.76
2022-08-18T08:53:36.312Z,49.58
2022-08-18T08:56:09.471Z,49.27
2022-08-18T08:58:55.661Z,49.01
2022-08-18T09:01:55.387Z,48.71
2022-08-18T09:04:54.114Z,48.47
2022-08-18T09:07:47.504Z,48.18
2022-08-18T09:10:34.882Z,47.85
2022-08-18T09:13:14.781Z,47.60
2022-08-18T09:16:14.153Z,47.11
2022-08-18T09:19:08.625Z,46.84
2022-08-18T09:21:54.600Z,46.81
2022-08-18T09:24:40.694Z,46.67
2022-08-18T09:27:15.359Z,46.09
2022-08-18T09:29:57.619Z,45.72
2022-08-18T09:32:26.244Z,45.14
2022-08-18T09:35:12.047Z,45.04
2022-08-18T09:37:50.320Z,44.64
2022-08-18T09:43:54.693Z,44.33
2022-08-18T09:46:41.657Z,43.86
2022-08-18T09:49:27.297Z,43.72
2022-08-18T09:52:00.263Z,43.56
2022-08-18T09:54:33.391Z,43.16
2022-08-18T09:57:19.506Z,43.07
2022-08-18T09:59:49.191Z,42.93
2022-08-18T10:02:32.749Z,42.58
2022-08-18T10:05:20.332Z,42.14
2022-08-18T10:08:08.121Z,41.96
2022-08-18T10:11:16.791Z,41.72
2022-08-18T10:14:10.587Z,41.59
2022-08-18T10:17:21.850Z,41.35
2022-08-18T10:20:25.958Z,41.22
2022-08-18T10:22:57.471Z,41.29
2022-08-18T10:25:39.598Z,41.15
2022-08-18T10:28:29.090Z,40.71
2022-08-18T10:31:06.188Z,40.66
2022-08-18T10:34:08.507Z,40.42
2022-08-18T10:36:58.875Z,40.17
2022-08-18T10:39:41.822Z,40.12
2022-08-18T10:42:19.416Z,40.12
2022-08-18T10:44:52.322Z,40.13
2022-08-18T10:47:33.589Z,39.99
2022-08-18T10:50:09.919Z,40.03
2022-08-18T10:56:08.739Z,39.81
2022-08-18T10:59:17.328Z,39.81
2022-08-18T11:02:18.682Z,39.91
2022-08-18T11:04:58.934Z,39.75
2022-08-18T11:07:30.928Z,39.75
2022-08-18T11:10:58.147Z,39.76
2022-08-18T11:13:29.600Z,39.86
2022-08-18T11:16:31.157Z,39.80
2022-08-18T11:19:16.973Z,39.45
2022-08-18T11:21:51.060Z,39.13
2022-08-18T11:24:26.002Z,38.96
2022-08-18T11:27:03.794Z,38.96
2022-08-18T11:29:40.326Z,39.24
2022-08-18T11:32:26.458Z,39.36
2022-08-18T11:35:05.100Z,39.37
2022-08-18T11:43:41.962Z,39.00
2022-08-18T11:49:30.212Z,38.86
2022-08-18T11:52:26.309Z,38.76
2022-08-18T11:55:16.690Z,38.67
2022-08-18T11:57:59.335Z,38.68
2022-08-18T12:00:53.791Z,38.52
2022-08-18T12:03:45.304Z,38.18
2022-08-18T12:06:29.892Z,38.19
2022-08-18T12:09:05.902Z,38.02
2022-08-18T12:11:41.280Z,37.88
2022-08-18T12:14:30.377Z,37.69
2022-08-18T12:17:08.626Z,37.70
2022-08-18T12:19:37.575Z,37.54
2022-08-18T12:22:19.571Z,37.40
2022-08-18T12:24:48.887Z,37.21
2022-08-18T12:30:16.655Z,36.75
2022-08-18T12:32:49.895Z,36.79
2022-08-18T12:35:21.993Z,36.75
2022-08-18T12:38:03.643Z,36.66
2022-08-18T12:40:40.412Z,36.72
2022-08-18T12:43:08.231Z,36.58
2022-08-18T12:48:28.248Z,36.13
2022-08-18T12:50:59.622Z,36.14
2022-08-18T12:53:38.269Z,36.12
2022-08-18T12:56:30.413Z,35.91
2022-08-18T12:59:03.883Z,35.81
2022-08-18T13:01:35.172Z,36.14
2022-08-18T13:04:12.981Z,36.27
2022-08-18T13:07:00.167Z,36.25
2022-08-18T13:09:35.183Z,36.11
2022-08-18T13:12:22.014Z,36.19
2022-08-18T13:14:50.879Z,36.19
2022-08-18T13:17:30.347Z,36.11
2022-08-18T13:20:05.614Z,36.15
2022-08-18T13:22:33.765Z,36.07
2022-08-18T13:25:07.514Z,36.04
2022-08-18T13:27:37.260Z,36.04
2022-08-18T13:30:16.819Z,36.08
2022-08-18T13:33:05.165Z,36.20
2022-08-18T13:35:52.385Z,36.26
2022-08-18T13:38:27.160Z,36.21
2022-08-18T13:41:00.901Z,36.00
2022-08-18T13:43:39.597Z,35.83
2022-08-18T13:46:11.601Z,35.62
2022-08-18T13:48:41.733Z,35.70
2022-08-18T13:51:14.358Z,35.57
2022-08-18T13:53:51.035Z,35.41
2022-08-18T13:56:31.245Z,35.34
2022-08-18T13:59:01.745Z,35.37
2022-08-18T14:01:44.433Z,35.12
2022-08-18T14:04:22.685Z,34.96
2022-08-18T14:06:57.340Z,34.96
2022-08-18T14:09:37.248Z,34.71
2022-08-18T14:12:33.425Z,34.58
2022-08-18T14:15:02.175Z,34.54
2022-08-18T14:17:30.598Z,34.52
2022-08-18T14:20:22.023Z,34.60
2022-08-18T14:23:22.008Z,34.66
2022-08-18T14:26:12.340Z,34.56
2022-08-18T14:28:43.102Z,34.26
2022-08-18T14:31:18.225Z,34.23
2022-08-18T14:33:50.902Z,34.27
2022-08-18T14:36:20.376Z,34.16
2022-08-18T14:39:02.875Z,34.08
2022-08-18T14:41:32.399Z,34.05
2022-08-18T14:44:12.982Z,33.87
2022-08-18T14:46:51.985Z,33.90
2022-08-18T14:49:28.248Z,33.83
2022-08-18T14:52:01.516Z,34.04
2022-08-18T14:54:31.476Z,34.04
2022-08-18T14:57:02.660Z,33.88
2022-08-18T14:59:34.576Z,33.80
2022-08-18T15:02:13.343Z,33.72
2022-08-18T15:04:53.144Z,33.82
2022-08-18T15:07:24.574Z,33.81
2022-08-18T15:10:14.991Z,33.91
2022-08-18T15:12:41.105Z,33.86
2022-08-18T15:15:17.689Z,33.90
2022-08-18T15:17:50.108Z,33.69
2022-08-18T15:20:29.683Z,33.73
2022-08-18T15:23:28.035Z,33.72
2022-08-18T15:25:59.053Z,33.90
2022-08-18T15:28:28.069Z,33.74
2022-08-18T15:33:44.572Z,33.68
2022-08-18T15:36:23.972Z,33.75
2022-08-18T15:38:59.294Z,33.80
2022-08-18T15:41:43.899Z,33.83
2022-08-18T15:44:14.507Z,33.86
2022-08-18T15:46:51.294Z,33.85
2022-08-18T15:49:24.474Z,33.71
2022-08-18T15:51:52.743Z,33.78
2022-08-18T15:54:21.463Z,33.84
2022-08-18T15:56:58.241Z,33.86
2022-08-18T15:59:34.237Z,33.80
2022-08-18T16:02:11.601Z,33.78
2022-08-18T16:04:43.103Z,33.94
2022-08-18T16:07:15.815Z,34.11
2022-08-18T16:09:46.488Z,34.07
2022-08-18T16:12:14.771Z,34.05
2022-08-18T16:14:43.148Z,34.27
2022-08-18T16:17:23.444Z,34.32
2022-08-18T16:19:52.941Z,34.33
2022-08-18T16:22:21.749Z,34.27
2022-08-18T16:24:54.906Z,34.19
2022-08-18T16:27:23.391Z,34.15
2022-08-18T16:29:51.165Z,34.09
2022-08-18T16:32:19.044Z,34.24
2022-08-18T16:34:47.010Z,34.25
2022-08-18T16:39:50.382Z,34.45
2022-08-18T16:42:21.433Z,34.53
2022-08-18T16:44:50.201Z,34.52
2022-08-18T16:47:19.556Z,34.54
2022-08-18T16:49:49.908Z,34.71
2022-08-18T16:52:20.101Z,34.73
2022-08-18T16:54:57.629Z,34.85
2022-08-18T16:57:53.764Z,34.91
2022-08-18T17:00:46.499Z,35.19
2022-08-18T17:03:42.953Z,35.23
2022-08-18T17:06:14.424Z,35.40
2022-08-18T17:08:44.467Z,35.43
2022-08-18T17:11:18.300Z,35.51
2022-08-18T17:13:48.949Z,35.56
2022-08-18T17:16:19.485Z,35.74
2022-08-18T17:18:48.933Z,35.77
2022-08-18T17:21:23.722Z,35.92
2022-08-18T17:23:52.491Z,35.95
2022-08-18T17:26:33.614Z,36.16
2022-08-18T17:29:26.781Z,36.27
2022-08-18T17:32:05.835Z,36.49
2022-08-18T17:34:39.581Z,36.44
2022-08-18T17:37:10.423Z,36.60
2022-08-18T17:40:02.894Z,36.82
2022-08-18T17:42:40.567Z,37.01
2022-08-18T17:45:21.800Z,37.08
2022-08-18T17:47:55.585Z,37.35
2022-08-18T17:50:54.870Z,37.33
2022-08-18T17:53:25.375Z,37.61
2022-08-18T17:56:35.564Z,37.71
2022-08-18T17:59:45.421Z,37.87
2022-08-18T18:02:19.027Z,38.21
2022-08-18T18:05:01.181Z,38.38
2022-08-18T18:07:38.659Z,38.69
2022-08-18T18:10:14.310Z,38.79
2022-08-18T18:12:42.544Z,39.13
2022-08-18T18:15:13.889Z,39.18
2022-08-18T18:17:43.104Z,39.45
2022-08-18T18:20:38.387Z,39.65
2022-08-18T18:23:28.011Z,39.94
2022-08-18T18:25:58.230Z,40.17
2022-08-18T18:28:33.386Z,40.17
2022-08-18T18:31:21.485Z,40.47
2022-08-18T18:33:58.976Z,40.53
2022-08-18T18:36:43.250Z,40.81
2022-08-18T18:39:35.444Z,40.90
2022-08-18T18:42:14.578Z,41.07
2022-08-18T18:44:51.870Z,41.17
2022-08-18T18:47:42.673Z,41.38
2022-08-18T18:50:21.940Z,41.71
2022-08-18T18:53:35.668Z,41.71
2022-08-18T18:56:18.314Z,42.04
2022-08-18T18:59:05.033Z,42.30
2022-08-18T19:02:01.487Z,42.36
2022-08-18T19:05:07.781Z,42.44
2022-08-18T19:08:04.967Z,42.45
2022-08-18T19:11:01.784Z,42.63
2022-08-18T19:13:49.458Z,42.80
2022-08-18T19:16:28.594Z,43.13
2022-08-18T19:19:36.834Z,43.30
2022-08-18T19:22:03.889Z,43.37
2022-08-18T19:24:40.964Z,43.30
2022-08-18T19:27:23.244Z,43.60
2022-08-18T19:29:59.539Z,43.62
2022-08-18T19:32:36.990Z,43.56
2022-08-18T19:35:11.913Z,43.78
2022-08-18T19:37:48.641Z,43.95
2022-08-18T19:41:00.694Z,44.04
2022-08-18T19:43:45.593Z,44.29
2022-08-18T19:46:38.180Z,44.28
2022-08-18T19:49:31.624Z,44.63
2022-08-18T19:52:45.812Z,44.64
2022-08-18T19:56:11.923Z,44.58
2022-08-18T19:59:15.472Z,44.85
2022-08-18T20:02:05.198Z,44.95
2022-08-18T20:04:57.443Z,45.08
2022-08-18T20:07:27.991Z,45.19
2022-08-18T20:10:25.957Z,45.30
2022-08-18T20:13:00.580Z,45.41
2022-08-18T20:15:29.127Z,45.47
2022-08-18T20:18:06.248Z,45.71
2022-08-18T20:20:40.034Z,45.76
2022-08-18T20:23:32.218Z,45.74
2022-08-18T20:26:00.810Z,46.10
2022-08-18T20:28:39.982Z,46.07
2022-08-18T20:31:17.451Z,46.11
2022-08-18T20:34:04.268Z,46.13
2022-08-18T20:36:36.908Z,46.47
2022-08-18T20:39:39.840Z,46.52
2022-08-18T20:42:37.129Z,46.83
2022-08-18T20:45:27.988Z,46.91
2022-08-18T20:48:01.264Z,46.96
2022-08-18T20:50:49.541Z,47.06
2022-08-18T20:53:59.094Z,47.07
2022-08-18T20:56:44.457Z,47.10
2022-08-18T20:59:28.979Z,47.23
2022-08-18T21:01:58.546Z,47.38
2022-08-18T21:05:00.526Z,47.55
2022-08-18T21:07:36.374Z,47.73
2022-08-18T21:10:17.472Z,47.87
2022-08-18T21:12:58.590Z,47.91
2022-08-18T21:15:33.378Z,48.09
2022-08-18T21:18:09.048Z,48.00
2022-08-18T21:20:37.531Z,48.11
2022-08-18T21:23:10.856Z,48.10
2022-08-18T21:26:02.123Z,48.22
2022-08-18T21:28:38.139Z,48.51
2022-08-18T21:31:42.964Z,48.61
2022-08-18T21:34:45.016Z,48.69
2022-08-18T21:37:15.817Z,48.96
2022-08-18T21:39:55.161Z,48.89
2022-08-18T21:42:45.029Z,49.17
2022-08-18T21:45:19.367Z,49.16
2022-08-18T21:47:51.398Z,49.14
2022-08-18T21:50:23.295Z,49.39
2022-08-18T21:52:53.931Z,49.53
2022-08-18T21:55:33.006Z,49.64
2022-08-18T21:58:03.208Z,49.59
2022-08-18T22:00:34.035Z,49.76
2022-08-18T22:03:21.393Z,49.88
2022-08-18T22:06:20.433Z,50.14
2022-08-18T22:08:51.584Z,50.24
2022-08-18T22:12:01.176Z,50.30
2022-08-18T22:14:54.358Z,50.40
2022-08-18T22:17:48.267Z,50.49
2022-08-18T22:20:40.940Z,50.66
2022-08-18T22:23:40.998Z,50.75
2022-08-18T22:26:27.772Z,50.84
2022-08-18T22:29:27.954Z,51.09
2022-08-18T22:32:01.461Z,51.02
2022-08-18T22:34:34.323Z,51.03
2022-08-18T22:37:14.627Z,51.33
2022-08-18T22:40:04.838Z,51.22
2022-08-18T22:42:34.241Z,51.39
2022-08-18T22:45:09.986Z,51.33
2022-08-18T22:47:43.238Z,51.41
2022-08-18T22:50:14.413Z,51.41
2022-08-18T22:52:48.523Z,51.50
2022-08-18T22:55:20.860Z,51.78
2022-08-18T22:57:56.172Z,51.89
2022-08-18T23:00:26.047Z,51.80
2022-08-18T23:02:55.658Z,51.97
2022-08-18T23:05:30.966Z,51.95
2022-08-18T23:08:00.455Z,52.07
2022-08-18T23:10:29.305Z,52.12
2022-08-18T23:13:03.630Z,52.12
2022-08-18T23:15:47.858Z,52.25
2022-08-18T23:18:19.683Z,52.28
2022-08-18T23:20:50.683Z,52.28
2022-08-18T23:23:21.544Z,52.38
2022-08-18T23:25:51.417Z,52.50
2022-08-18T23:28:20.409Z,52.58
2022-08-18T23:30:50.607Z,52.52
2022-08-18T23:33:21.704Z,52.61
2022-08-18T23:35:50.479Z,52.89
2022-08-18T23:38:19.428Z,52.92
2022-08-18T23:40:51.422Z,52.84
2022-08-18T23:43:23.796Z,53.07
2022-08-18T23:45:51.915Z,53.01
2022-08-18T23:48:23.723Z,53.14
2022-08-18T23:50:51.769Z,53.17
2022-08-18T23:53:20.069Z,53.37
2022-08-18T23:55:48.025Z,53.31
2022-08-18T23:58:16.210Z,53.31
